createdAt,value
2022-07-25T00:00:29.472Z,21.90
2022-07-25T00:03:02.767Z,21.90
2022-07-25T00:05:37.930Z,21.80
2022-07-25T00:08:09.876Z,21.80
2022-07-25T00:10:41.633Z,21.80
2022-07-25T00:13:13.483Z,21.70
2022-07-25T00:15:45.329Z,21.60
2022-07-25T00:18:17.136Z,21.50
2022-07-25T00:20:48.876Z,21.50
2022-07-25T00:23:20.784Z,21.50
2022-07-25T00:25:52.542Z,21.40
2022-07-25T00:28:24.260Z,21.40
2022-07-25T00:30:56.202Z,21.40
2022-07-25T00:33:27.969Z,21.40
2022-07-25T00:35:59.885Z,21.30
2022-07-25T00:38:31.619Z,21.30
2022-07-25T00:41:04.385Z,21.30
2022-07-25T00:43:36.319Z,21.20
2022-07-25T00:46:08.721Z,21.20
2022-07-25T00:48:41.045Z,21.20
2022-07-25T00:51:12.890Z,21.20
2022-07-25T00:53:45.390Z,21.10
2022-07-25T00:56:17.303Z,21.10
2022-07-25T00:58:49.027Z,21.00
2022-07-25T01:01:20.987Z,21.00
2022-07-25T01:03:52.857Z,21.00
2022-07-25T01:06:25.415Z,21.00
2022-07-25T01:08:58.169Z,20.90
2022-07-25T01:11:29.921Z,20.90
2022-07-25T01:14:01.924Z,20.90
2022-07-25T01:16:33.899Z,20.80
2022-07-25T01:19:05.638Z,20.90
2022-07-25T01:21:39.353Z,20.90
2022-07-25T01:24:11.585Z,20.90
2022-07-25T01:26:43.402Z,20.80
2022-07-25T01:29:15.158Z,20.70
2022-07-25T01:31:47.036Z,20.70
2022-07-25T01:34:18.799Z,20.80
2022-07-25T01:36:50.609Z,20.80
2022-07-25T01:39:22.384Z,20.80
2022-07-25T01:41:54.122Z,20.80
2022-07-25T01:44:25.867Z,20.70
2022-07-25T01:46:57.629Z,20.60
2022-07-25T01:49:30.094Z,20.50
2022-07-25T01:52:01.976Z,20.40
2022-07-25T01:54:33.725Z,20.30
2022-07-25T01:57:06.901Z,20.30
2022-07-25T01:59:40.191Z,20.30
2022-07-25T02:02:11.981Z,20.40
2022-07-25T02:04:43.842Z,20.40
2022-07-25T02:07:15.667Z,20.40
2022-07-25T02:09:47.386Z,20.40
2022-07-25T02:12:19.339Z,20.40
2022-07-25T02:14:51.372Z,20.40
2022-07-25T02:17:23.376Z,20.30
2022-07-25T02:19:55.095Z,20.20
2022-07-25T02:22:26.842Z,20.10
2022-07-25T02:24:58.587Z,20.10
2022-07-25T02:27:30.373Z,20.00
2022-07-25T02:30:02.101Z,19.90
2022-07-25T02:32:33.983Z,19.90
2022-07-25T02:35:09.918Z,19.90
2022-07-25T02:37:45.325Z,20.00
2022-07-25T02:40:17.084Z,20.00
2022-07-25T02:42:48.850Z,20.00
2022-07-25T02:45:20.665Z,19.80
2022-07-25T02:47:52.701Z,19.70
2022-07-25T02:50:25.110Z,19.70
2022-07-25T02:52:56.900Z,19.70
2022-07-25T02:55:28.649Z,19.70
2022-07-25T02:58:00.386Z,19.70
2022-07-25T03:00:32.163Z,19.60
2022-07-25T03:03:04.032Z,19.50
2022-07-25T03:05:36.065Z,19.50
2022-07-25T03:08:07.805Z,19.50
2022-07-25T03:10:39.550Z,19.50
2022-07-25T03:13:11.292Z,19.50
2022-07-25T03:15:43.515Z,19.50
2022-07-25T03:18:15.281Z,19.50
2022-07-25T03:20:47.036Z,19.40
2022-07-25T03:23:18.788Z,19.40
2022-07-25T03:25:50.509Z,19.40
2022-07-25T03:28:22.723Z,19.40
2022-07-25T03:30:55.039Z,19.40
2022-07-25T03:33:26.785Z,19.40
2022-07-25T03:35:58.520Z,19.30
2022-07-25T03:38:30.312Z,19.20
2022-07-25T03:41:02.019Z,19.20
2022-07-25T03:43:33.759Z,19.30
2022-07-25T03:46:05.560Z,19.30
2022-07-25T03:48:37.346Z,19.20
2022-07-25T03:51:09.213Z,19.20
2022-07-25T03:53:59.624Z,19.10
2022-07-25T03:56:36.243Z,19.10
2022-07-25T03:59:17.719Z,19.10
2022-07-25T04:01:50.899Z,19.20
2022-07-25T04:04:22.808Z,19.30
2022-07-25T04:06:54.547Z,19.30
2022-07-25T04:09:26.489Z,19.30
2022-07-25T04:12:04.538Z,19.30
2022-07-25T04:14:36.363Z,19.20
2022-07-25T04:17:08.147Z,19.20
2022-07-25T04:19:41.449Z,19.20
2022-07-25T04:22:13.217Z,19.20
2022-07-25T04:24:44.971Z,19.10
2022-07-25T04:27:16.848Z,18.90
2022-07-25T04:29:48.607Z,18.90
2022-07-25T04:32:23.520Z,18.80
2022-07-25T04:34:55.524Z,18.80
2022-07-25T04:37:27.318Z,18.80
2022-07-25T04:39:59.064Z,18.90
2022-07-25T04:42:30.959Z,19.00
2022-07-25T04:45:02.715Z,19.30
2022-07-25T04:47:34.674Z,20.10
2022-07-25T04:50:08.082Z,21.50
2022-07-25T04:52:40.074Z,23.20
2022-07-25T04:55:12.240Z,24.70
2022-07-25T04:57:43.968Z,26.00
2022-07-25T05:00:16.683Z,27.40
2022-07-25T05:02:49.909Z,28.50
2022-07-25T05:05:22.352Z,29.30
2022-07-25T05:07:59.188Z,29.80
2022-07-25T05:10:31.145Z,30.20
2022-07-25T05:13:03.301Z,30.40
2022-07-25T05:15:35.316Z,30.80
2022-07-25T05:18:07.075Z,30.90
2022-07-25T05:20:39.116Z,31.00
2022-07-25T05:23:10.872Z,31.10
2022-07-25T05:25:42.651Z,30.90
2022-07-25T05:28:14.928Z,30.70
2022-07-25T05:34:46.584Z,30.40
2022-07-25T05:37:18.399Z,30.30
2022-07-25T05:39:50.186Z,29.90
2022-07-25T05:42:21.973Z,29.40
2022-07-25T05:44:53.736Z,29.40
2022-07-25T05:47:25.531Z,29.60
2022-07-25T05:49:57.265Z,29.90
2022-07-25T05:52:28.987Z,29.80
2022-07-25T05:55:00.797Z,29.40
2022-07-25T05:57:32.567Z,29.40
2022-07-25T06:00:06.465Z,29.40
2022-07-25T06:02:38.487Z,30.40
2022-07-25T06:05:10.409Z,29.60
2022-07-25T06:07:42.273Z,29.70
2022-07-25T06:10:14.019Z,29.80
2022-07-25T06:12:45.798Z,30.00
2022-07-25T06:15:22.567Z,30.00
2022-07-25T06:17:58.488Z,30.20
2022-07-25T06:20:31.084Z,30.10
2022-07-25T06:23:04.934Z,30.20
2022-07-25T06:25:36.837Z,30.20
2022-07-25T06:28:10.602Z,30.30
2022-07-25T06:30:44.318Z,30.10
2022-07-25T06:33:16.238Z,30.00
2022-07-25T06:35:48.011Z,30.10
2022-07-25T06:38:19.897Z,30.10
2022-07-25T06:40:51.933Z,30.00
2022-07-25T06:43:24.035Z,29.60
2022-07-25T06:45:55.981Z,29.60
2022-07-25T06:48:27.924Z,29.50
2022-07-25T06:50:59.949Z,29.40
2022-07-25T06:53:31.988Z,29.30
2022-07-25T06:56:03.993Z,29.10
2022-07-25T06:58:35.804Z,29.10
2022-07-25T07:01:07.806Z,29.20
2022-07-25T07:03:40.533Z,28.30
2022-07-25T07:06:12.387Z,29.20
2022-07-25T07:08:44.123Z,29.20
2022-07-25T07:11:16.761Z,27.20
2022-07-25T07:13:48.509Z,29.00
2022-07-25T07:16:20.493Z,29.00
2022-07-25T07:18:52.359Z,29.10
2022-07-25T07:21:24.631Z,29.10
2022-07-25T07:23:57.688Z,29.20
2022-07-25T07:26:29.519Z,29.20
2022-07-25T07:29:03.280Z,29.20
2022-07-25T07:31:35.429Z,29.30
2022-07-25T07:34:07.421Z,29.20
2022-07-25T07:36:39.322Z,29.20
2022-07-25T07:39:11.168Z,29.10
2022-07-25T07:41:42.942Z,29.20
2022-07-25T07:44:14.865Z,29.20
2022-07-25T07:46:46.706Z,29.10
2022-07-25T07:49:18.577Z,29.10
2022-07-25T07:51:50.343Z,29.20
2022-07-25T07:54:41.029Z,29.10
2022-07-25T07:57:12.797Z,29.10
2022-07-25T07:59:44.708Z,29.20
2022-07-25T08:02:17.249Z,29.30
2022-07-25T08:04:51.862Z,29.30
2022-07-25T08:07:27.047Z,29.40
2022-07-25T08:09:58.903Z,29.40
2022-07-25T08:12:32.841Z,29.40
2022-07-25T08:15:05.284Z,29.40
2022-07-25T08:17:37.321Z,30.60
2022-07-25T08:20:36.477Z,29.60
2022-07-25T08:23:03.823Z,29.80
2022-07-25T08:25:36.160Z,30.10
2022-07-25T08:28:08.481Z,30.20
2022-07-25T08:30:41.851Z,30.30
2022-07-25T08:33:18.347Z,30.30
2022-07-25T08:35:53.700Z,30.50
2022-07-25T08:38:28.191Z,30.60
2022-07-25T08:41:00.085Z,30.60
2022-07-25T08:43:35.906Z,30.60
2022-07-25T08:46:10.563Z,30.70
2022-07-25T08:48:44.585Z,30.80
2022-07-25T08:51:16.796Z,30.90
2022-07-25T08:53:50.211Z,30.90
2022-07-25T08:56:22.040Z,31.00
2022-07-25T08:58:53.957Z,31.10
2022-07-25T09:01:25.925Z,31.20
2022-07-25T09:03:58.242Z,31.30
2022-07-25T09:06:30.091Z,31.40
2022-07-25T09:09:08.510Z,31.40
2022-07-25T09:11:40.287Z,31.30
2022-07-25T09:14:15.247Z,31.40
2022-07-25T09:16:47.986Z,31.50
2022-07-25T09:19:21.604Z,31.30
2022-07-25T09:22:10.373Z,31.30
2022-07-25T09:24:45.586Z,31.40
2022-07-25T09:27:18.232Z,31.40
2022-07-25T09:29:49.987Z,31.40
2022-07-25T09:32:22.999Z,31.50
2022-07-25T09:34:54.864Z,31.70
2022-07-25T09:37:27.628Z,31.90
2022-07-25T09:39:59.597Z,32.20
2022-07-25T09:42:32.814Z,32.20
2022-07-25T09:45:06.637Z,32.10
2022-07-25T09:48:02.706Z,32.20
2022-07-25T09:50:34.534Z,32.20
2022-07-25T09:53:06.392Z,32.20
2022-07-25T09:55:38.158Z,32.30
2022-07-25T09:58:10.186Z,32.50
2022-07-25T10:00:43.275Z,32.60
2022-07-25T10:03:16.269Z,32.60
2022-07-25T10:06:11.933Z,32.60
2022-07-25T10:08:44.475Z,32.60
2022-07-25T10:11:21.703Z,32.70
2022-07-25T10:13:55.171Z,32.70
2022-07-25T10:16:27.767Z,32.60
2022-07-25T10:18:59.940Z,32.70
2022-07-25T10:21:31.885Z,32.70
2022-07-25T10:24:06.786Z,32.90
2022-07-25T10:26:40.428Z,33.10
2022-07-25T10:29:13.117Z,33.20
2022-07-25T10:31:50.644Z,33.30
2022-07-25T10:34:33.336Z,33.30
2022-07-25T10:37:14.683Z,33.30
2022-07-25T10:39:48.250Z,33.30
2022-07-25T10:42:23.799Z,33.30
2022-07-25T10:44:57.560Z,34.50
2022-07-25T10:47:29.547Z,33.50
2022-07-25T10:53:00.568Z,33.20
2022-07-25T10:55:35.656Z,33.10
2022-07-25T10:58:17.659Z,33.30
2022-07-25T11:00:51.341Z,33.50
2022-07-25T11:03:24.352Z,33.50
2022-07-25T11:05:56.189Z,33.60
2022-07-25T11:08:35.772Z,33.60
2022-07-25T11:11:08.596Z,33.30
2022-07-25T11:13:42.171Z,33.20
2022-07-25T11:16:14.070Z,33.40
2022-07-25T11:18:45.933Z,33.40
2022-07-25T11:21:17.849Z,33.20
2022-07-25T11:23:52.899Z,33.30
2022-07-25T11:26:24.637Z,33.50
2022-07-25T11:28:56.519Z,33.70
2022-07-25T11:31:29.823Z,33.90
2022-07-25T11:34:01.818Z,34.10
2022-07-25T11:36:33.734Z,34.10
2022-07-25T11:39:05.909Z,34.20
2022-07-25T11:41:39.438Z,34.30
2022-07-25T11:44:11.354Z,34.30
2022-07-25T11:46:44.260Z,34.20
2022-07-25T11:49:16.093Z,34.10
2022-07-25T11:51:47.884Z,34.00
2022-07-25T11:54:20.089Z,34.00
2022-07-25T11:56:52.017Z,34.10
2022-07-25T11:59:25.296Z,34.20
2022-07-25T12:01:57.476Z,34.30
2022-07-25T12:04:29.360Z,34.50
2022-07-25T12:07:06.022Z,34.70
2022-07-25T12:09:37.858Z,34.70
2022-07-25T12:12:09.897Z,34.80
2022-07-25T12:14:44.625Z,34.70
2022-07-25T12:17:16.579Z,34.60
2022-07-25T12:19:48.839Z,34.70
2022-07-25T12:22:20.633Z,34.80
2022-07-25T12:24:52.497Z,34.80
2022-07-25T12:27:24.285Z,34.70
2022-07-25T12:29:56.076Z,34.80
2022-07-25T12:32:27.917Z,34.90
2022-07-25T12:35:00.390Z,34.90
2022-07-25T12:37:32.505Z,35.00
2022-07-25T12:40:05.741Z,35.10
2022-07-25T12:42:37.545Z,35.20
2022-07-25T12:45:10.000Z,35.20
2022-07-25T12:47:43.868Z,35.20
2022-07-25T12:50:16.676Z,35.30
2022-07-25T12:52:48.767Z,35.30
2022-07-25T12:55:21.716Z,35.40
2022-07-25T12:57:53.899Z,35.20
2022-07-25T13:00:26.029Z,35.20
2022-07-25T13:02:58.018Z,35.10
2022-07-25T13:05:29.864Z,35.00
2022-07-25T13:08:05.043Z,34.80
2022-07-25T13:10:36.795Z,35.60
2022-07-25T13:13:08.548Z,35.00
2022-07-25T13:15:40.541Z,35.10
2022-07-25T13:18:12.520Z,35.10
2022-07-25T13:20:44.305Z,35.20
2022-07-25T13:23:20.520Z,35.30
2022-07-25T13:25:52.877Z,35.30
2022-07-25T13:28:24.690Z,35.30
2022-07-25T13:30:56.634Z,35.50
2022-07-25T13:33:29.135Z,35.70
2022-07-25T13:36:00.967Z,35.90
2022-07-25T13:38:34.678Z,36.10
2022-07-25T13:41:06.732Z,36.10
2022-07-25T13:43:38.957Z,36.10
2022-07-25T13:46:11.465Z,35.90
2022-07-25T13:48:43.488Z,35.90
2022-07-25T13:51:15.295Z,35.70
2022-07-25T13:53:47.111Z,35.80
2022-07-25T13:56:18.911Z,35.90
2022-07-25T13:58:50.936Z,35.90
2022-07-25T14:01:22.765Z,36.00
2022-07-25T14:03:55.044Z,36.00
2022-07-25T14:06:26.817Z,35.90
2022-07-25T14:08:58.860Z,35.90
2022-07-25T14:11:31.507Z,36.10
2022-07-25T14:14:03.310Z,36.10
2022-07-25T14:16:35.164Z,36.30
2022-07-25T14:19:08.448Z,37.00
2022-07-25T14:21:40.464Z,36.30
2022-07-25T14:24:12.221Z,36.20
2022-07-25T14:26:43.978Z,36.30
2022-07-25T14:29:15.910Z,36.30
2022-07-25T14:31:47.871Z,36.40
2022-07-25T14:34:19.856Z,36.50
2022-07-25T14:36:51.612Z,36.50
2022-07-25T14:39:23.409Z,36.40
2022-07-25T14:41:55.375Z,36.30
2022-07-25T14:44:28.795Z,36.30
2022-07-25T14:47:00.643Z,36.50
2022-07-25T14:49:32.683Z,36.60
2022-07-25T14:52:04.739Z,36.40
2022-07-25T14:54:36.493Z,36.40
2022-07-25T14:57:09.423Z,36.40
2022-07-25T14:59:41.470Z,36.10
2022-07-25T15:02:13.305Z,36.10
2022-07-25T15:04:45.244Z,36.30
2022-07-25T15:07:17.078Z,36.30
2022-07-25T15:09:48.815Z,36.50
2022-07-25T15:12:20.838Z,36.60
2022-07-25T15:14:52.607Z,36.40
2022-07-25T15:17:24.365Z,36.30
2022-07-25T15:19:56.174Z,36.40
2022-07-25T15:22:27.966Z,36.50
2022-07-25T15:25:39.152Z,36.60
2022-07-25T15:27:51.683Z,36.70
2022-07-25T15:30:28.941Z,36.80
2022-07-25T15:33:01.070Z,36.80
2022-07-25T15:35:32.882Z,36.80
2022-07-25T15:38:04.634Z,37.00
2022-07-25T15:40:36.441Z,36.90
2022-07-25T15:43:08.420Z,36.70
2022-07-25T15:45:42.055Z,36.80
2022-07-25T15:48:14.995Z,36.80
2022-07-25T15:50:48.668Z,36.80
2022-07-25T15:53:20.567Z,36.60
2022-07-25T15:55:52.504Z,36.40
2022-07-25T15:58:24.456Z,36.30
2022-07-25T16:00:56.404Z,36.40
2022-07-25T16:03:28.282Z,36.40
2022-07-25T16:06:00.172Z,36.30
2022-07-25T16:08:32.169Z,36.50
2022-07-25T16:11:04.679Z,36.60
2022-07-25T16:13:36.414Z,36.90
2022-07-25T16:16:08.480Z,36.80
2022-07-25T16:18:40.259Z,36.70
2022-07-25T16:21:12.291Z,36.60
2022-07-25T16:23:45.672Z,36.40
2022-07-25T16:26:17.704Z,36.30
2022-07-25T16:28:49.493Z,36.00
2022-07-25T16:31:21.288Z,35.80
2022-07-25T16:33:53.076Z,35.60
2022-07-25T16:36:25.407Z,35.40
2022-07-25T16:38:57.391Z,35.10
2022-07-25T16:41:29.179Z,34.90
2022-07-25T16:44:02.188Z,34.70
2022-07-25T16:46:34.007Z,34.70
2022-07-25T16:49:06.713Z,34.60
2022-07-25T16:51:38.670Z,34.50
2022-07-25T16:54:10.757Z,34.40
2022-07-25T16:56:42.623Z,34.30
2022-07-25T16:59:14.445Z,34.20
2022-07-25T17:01:46.599Z,34.10
2022-07-25T17:04:18.492Z,34.10
2022-07-25T17:06:50.448Z,34.00
2022-07-25T17:09:23.101Z,33.80
2022-07-25T17:11:54.932Z,33.80
2022-07-25T17:14:30.161Z,33.60
2022-07-25T17:17:02.338Z,33.60
2022-07-25T17:19:38.613Z,33.40
2022-07-25T17:22:10.567Z,33.40
2022-07-25T17:24:42.420Z,33.40
2022-07-25T17:27:14.964Z,33.30
2022-07-25T17:29:46.745Z,33.20
2022-07-25T17:32:18.554Z,33.20
2022-07-25T17:34:52.430Z,33.20
2022-07-25T17:37:24.383Z,33.10
2022-07-25T17:39:56.438Z,33.00
2022-07-25T17:42:28.249Z,32.80
2022-07-25T17:45:00.102Z,32.20
2022-07-25T17:47:32.102Z,31.60
2022-07-25T17:50:05.071Z,31.10
2022-07-25T17:52:36.937Z,30.80
2022-07-25T17:55:09.235Z,30.40
2022-07-25T17:57:42.521Z,30.10
2022-07-25T18:00:15.055Z,29.70
2022-07-25T18:02:47.654Z,29.30
2022-07-25T18:05:19.551Z,28.90
2022-07-25T18:07:51.620Z,28.60
2022-07-25T18:10:23.649Z,28.50
2022-07-25T18:12:55.560Z,28.40
2022-07-25T18:15:27.764Z,28.30
2022-07-25T18:17:59.549Z,28.30
2022-07-25T18:20:31.335Z,28.30
2022-07-25T18:23:04.281Z,28.20
2022-07-25T18:25:36.153Z,28.10
2022-07-25T18:28:07.923Z,28.00
2022-07-25T18:30:39.910Z,27.90
2022-07-25T18:33:12.217Z,27.90
2022-07-25T18:35:44.110Z,29.30
2022-07-25T18:38:15.959Z,28.00
2022-07-25T18:40:49.457Z,28.10
2022-07-25T18:43:21.571Z,28.10
2022-07-25T18:45:54.302Z,28.10
2022-07-25T18:48:29.051Z,28.10
2022-07-25T18:51:00.891Z,28.10
2022-07-25T18:53:32.750Z,28.10
2022-07-25T18:56:05.775Z,28.20
2022-07-25T18:58:37.703Z,28.20
2022-07-25T19:01:09.794Z,28.10
2022-07-25T19:03:41.801Z,28.10
2022-07-25T19:06:13.951Z,28.00
2022-07-25T19:08:47.802Z,28.00
2022-07-25T19:11:19.563Z,27.90
2022-07-25T19:13:51.724Z,27.90
2022-07-25T19:16:23.641Z,27.90
2022-07-25T19:18:55.535Z,27.90
2022-07-25T19:21:27.380Z,27.90
2022-07-25T19:23:59.139Z,27.80
2022-07-25T19:26:31.920Z,27.80
2022-07-25T19:29:06.831Z,27.80
2022-07-25T19:31:38.748Z,27.90
2022-07-25T19:34:11.537Z,27.80
2022-07-25T19:36:45.856Z,27.80
2022-07-25T19:39:17.642Z,27.70
2022-07-25T19:41:49.406Z,27.70
2022-07-25T19:44:21.529Z,27.70
2022-07-25T19:46:54.241Z,27.60
2022-07-25T19:49:26.022Z,27.50
2022-07-25T19:51:57.925Z,27.50
2022-07-25T19:54:29.849Z,27.40
2022-07-25T19:57:01.676Z,27.40
2022-07-25T19:59:33.439Z,27.30
2022-07-25T20:02:05.258Z,27.30
2022-07-25T20:04:37.067Z,27.20
2022-07-25T20:07:08.943Z,27.10
2022-07-25T20:09:40.708Z,27.00
2022-07-25T20:12:12.494Z,27.00
2022-07-25T20:14:44.295Z,26.80
2022-07-25T20:17:16.257Z,26.70
2022-07-25T20:19:48.034Z,26.60
2022-07-25T20:22:19.926Z,26.60
2022-07-25T20:24:51.960Z,26.60
2022-07-25T20:27:24.019Z,26.50
2022-07-25T20:29:55.791Z,26.40
2022-07-25T20:32:27.544Z,26.30
2022-07-25T20:34:59.377Z,26.30
2022-07-25T20:37:31.148Z,26.30
2022-07-25T20:40:04.803Z,26.30
2022-07-25T20:42:37.518Z,26.20
2022-07-25T20:45:09.766Z,26.10
2022-07-25T20:47:41.551Z,26.00
2022-07-25T20:50:13.398Z,26.00
2022-07-25T20:52:45.173Z,26.00
2022-07-25T20:55:16.966Z,26.10
2022-07-25T20:57:50.684Z,26.00
2022-07-25T21:00:25.654Z,26.00
2022-07-25T21:02:58.385Z,26.00
2022-07-25T21:05:30.297Z,26.00
2022-07-25T21:08:02.083Z,26.10
2022-07-25T21:10:33.895Z,26.10
2022-07-25T21:13:05.958Z,26.10
2022-07-25T21:15:37.933Z,26.20
2022-07-25T21:18:09.697Z,26.20
2022-07-25T21:20:41.541Z,26.20
2022-07-25T21:23:14.135Z,26.20
2022-07-25T21:25:45.911Z,26.20
2022-07-25T21:28:17.631Z,26.30
2022-07-25T21:30:49.578Z,26.30
2022-07-25T21:33:21.610Z,26.30
2022-07-25T21:35:53.945Z,26.40
2022-07-25T21:38:27.382Z,26.40
2022-07-25T21:41:00.874Z,26.30
2022-07-25T21:43:32.692Z,26.20
2022-07-25T21:46:04.583Z,26.20
2022-07-25T21:48:54.900Z,26.10
2022-07-25T21:51:26.811Z,26.00
2022-07-25T21:54:10.058Z,26.00
2022-07-25T21:56:42.142Z,25.90
2022-07-25T21:59:13.942Z,25.90
2022-07-25T22:01:45.763Z,25.80
2022-07-25T22:04:18.031Z,25.70
2022-07-25T22:06:49.889Z,25.60
2022-07-25T22:09:21.620Z,25.70
2022-07-25T22:11:57.868Z,25.70
2022-07-25T22:14:29.645Z,25.60
2022-07-25T22:17:01.669Z,25.60
2022-07-25T22:19:33.772Z,25.70
2022-07-25T22:22:06.941Z,25.60
2022-07-25T22:24:41.948Z,25.50
2022-07-25T22:27:18.049Z,25.40
2022-07-25T22:29:49.800Z,25.40
2022-07-25T22:32:21.654Z,25.30
2022-07-25T22:34:53.477Z,25.30
2022-07-25T22:37:25.267Z,25.30
2022-07-25T22:40:01.142Z,25.20
2022-07-25T22:42:33.500Z,25.20
2022-07-25T22:45:05.971Z,25.20
2022-07-25T22:47:37.769Z,25.20
2022-07-25T22:50:10.015Z,25.20
2022-07-25T22:52:41.832Z,25.20
2022-07-25T22:55:13.668Z,25.20
2022-07-25T22:57:45.480Z,25.20
2022-07-25T23:00:17.564Z,25.10
2022-07-25T23:02:49.421Z,25.10
2022-07-25T23:05:21.272Z,25.10
2022-07-25T23:07:53.015Z,25.10
2022-07-25T23:10:24.974Z,25.10
2022-07-25T23:12:56.919Z,25.00
2022-07-25T23:15:28.829Z,25.10
2022-07-25T23:18:20.935Z,25.10
2022-07-25T23:20:52.794Z,25.10
2022-07-25T23:23:24.634Z,25.10
2022-07-25T23:25:56.371Z,25.10
2022-07-25T23:28:28.113Z,25.00
2022-07-25T23:30:59.854Z,25.00
2022-07-25T23:33:33.307Z,24.90
2022-07-25T23:36:05.432Z,24.90
2022-07-25T23:38:40.321Z,24.90
2022-07-25T23:41:21.245Z,24.90
2022-07-25T23:43:56.107Z,24.80
2022-07-25T23:50:33.163Z,24.80
2022-07-25T23:53:04.928Z,24.70
2022-07-25T23:55:39.633Z,24.60
